createdAt,value
2022-11-05T00:00:51.656Z,5.11
2022-11-05T00:03:37.848Z,5.10
2022-11-05T00:06:24.454Z,5.10
2022-11-05T00:09:11.650Z,5.11
2022-11-05T00:11:57.537Z,5.12
2022-11-05T00:14:43.436Z,5.16
2022-11-05T00:17:11.793Z,5.20
2022-11-05T00:19:40.145Z,5.23
2022-11-05T00:22:22.393Z,5.25
2022-11-05T00:25:09.576Z,5.27
2022-11-05T00:27:37.984Z,5.29
2022-11-05T00:30:08.196Z,5.32
2022-11-05T00:32:36.595Z,5.34
2022-11-05T00:35:05.485Z,5.36
2022-11-05T00:37:33.872Z,5.37
2022-11-05T00:40:04.405Z,5.37
2022-11-05T00:42:50.202Z,5.37
2022-11-05T00:45:18.925Z,5.38
2022-11-05T00:48:04.706Z,5.41
2022-11-05T00:50:33.616Z,5.39
2022-11-05T00:53:02.459Z,5.40
2022-11-05T00:55:36.907Z,5.40
2022-11-05T00:58:06.953Z,5.40
2022-11-05T01:00:37.485Z,5.42
2022-11-05T01:03:08.571Z,5.42
2022-11-05T01:05:41.696Z,5.43
2022-11-05T01:08:11.117Z,5.39
2022-11-05T01:10:43.286Z,5.39
2022-11-05T01:13:13.385Z,5.39
2022-11-05T01:15:42.241Z,5.40
2022-11-05T01:18:10.880Z,5.37
2022-11-05T01:20:39.665Z,5.33
2022-11-05T01:23:13.175Z,5.31
2022-11-05T01:25:43.285Z,5.30
2022-11-05T01:28:11.977Z,5.32
2022-11-05T01:30:40.989Z,5.32
2022-11-05T01:33:09.692Z,5.31
2022-11-05T01:35:40.015Z,5.32
2022-11-05T01:38:08.593Z,5.33
2022-11-05T01:40:37.289Z,5.35
2022-11-05T01:43:15.369Z,5.36
2022-11-05T01:45:45.859Z,5.36
2022-11-05T01:48:18.117Z,5.35
2022-11-05T01:50:51.347Z,5.33
2022-11-05T01:53:26.281Z,5.34
2022-11-05T01:55:59.029Z,5.35
2022-11-05T01:58:33.743Z,5.37
2022-11-05T02:01:02.518Z,5.38
2022-11-05T02:03:31.453Z,5.39
2022-11-05T02:06:03.870Z,5.40
2022-11-05T02:08:49.635Z,5.41
2022-11-05T02:11:20.028Z,5.41
2022-11-05T02:13:50.493Z,5.39
2022-11-05T02:16:31.581Z,5.38
2022-11-05T02:19:14.446Z,5.37
2022-11-05T02:22:03.041Z,5.32
2022-11-05T02:25:01.710Z,5.29
2022-11-05T02:27:51.305Z,5.25
2022-11-05T02:30:43.301Z,5.26
2022-11-05T02:33:25.326Z,5.26
2022-11-05T02:36:14.486Z,5.26
2022-11-05T02:38:49.213Z,5.26
2022-11-05T02:41:25.885Z,5.29
2022-11-05T02:44:07.675Z,5.30
2022-11-05T02:46:48.133Z,5.32
2022-11-05T02:49:28.466Z,5.37
2022-11-05T02:51:59.560Z,5.41
2022-11-05T02:54:34.236Z,5.47
2022-11-05T02:57:04.842Z,5.49
2022-11-05T02:59:33.230Z,5.53
2022-11-05T03:02:05.264Z,5.55
2022-11-05T03:04:34.132Z,5.57
2022-11-05T03:07:20.381Z,5.60
2022-11-05T03:10:11.384Z,5.60
2022-11-05T03:12:48.406Z,5.63
2022-11-05T03:15:27.677Z,5.65
2022-11-05T03:18:07.823Z,5.67
2022-11-05T03:20:40.821Z,5.68
2022-11-05T03:23:16.285Z,5.71
2022-11-05T03:25:49.167Z,5.75
2022-11-05T03:28:21.054Z,5.75
2022-11-05T03:30:52.695Z,5.78
2022-11-05T03:33:27.265Z,5.81
2022-11-05T03:36:00.014Z,5.84
2022-11-05T03:38:33.873Z,5.84
2022-11-05T03:41:07.618Z,5.85
2022-11-05T03:43:38.754Z,5.83
2022-11-05T03:46:11.005Z,5.82
2022-11-05T03:48:45.674Z,5.82
2022-11-05T03:51:21.901Z,5.82
2022-11-05T03:53:54.846Z,5.83
2022-11-05T03:56:30.362Z,5.84
2022-11-05T03:59:01.585Z,5.84
2022-11-05T04:01:31.151Z,5.86
2022-11-05T04:04:00.898Z,5.88
2022-11-05T04:06:46.745Z,5.88
2022-11-05T04:09:32.770Z,5.87
2022-11-05T04:12:18.693Z,5.89
2022-11-05T04:14:46.999Z,5.89
2022-11-05T04:17:14.889Z,5.89
2022-11-05T04:20:03.636Z,5.91
2022-11-05T04:22:51.367Z,5.90
2022-11-05T04:25:21.317Z,5.90
2022-11-05T04:27:50.380Z,5.89
2022-11-05T04:30:19.028Z,5.88
2022-11-05T04:33:06.858Z,5.87
2022-11-05T04:35:39.271Z,5.87
2022-11-05T04:38:10.408Z,5.87
2022-11-05T04:40:39.428Z,5.85
2022-11-05T04:43:14.684Z,5.88
2022-11-05T04:45:44.526Z,5.89
2022-11-05T04:48:13.419Z,5.90
2022-11-05T04:50:43.389Z,5.90
2022-11-05T04:53:12.076Z,5.91
2022-11-05T04:55:40.579Z,5.93
2022-11-05T04:58:10.366Z,5.95
2022-11-05T05:00:38.783Z,5.94
2022-11-05T05:03:07.506Z,5.94
2022-11-05T05:05:35.985Z,5.94
2022-11-05T05:08:06.726Z,5.92
2022-11-05T05:10:35.397Z,5.95
2022-11-05T05:13:03.706Z,5.96
2022-11-05T05:15:32.408Z,5.95
2022-11-05T05:18:00.835Z,5.94
2022-11-05T05:20:47.025Z,5.94
2022-11-05T05:23:16.754Z,5.92
2022-11-05T05:25:45.125Z,5.92
2022-11-05T05:28:13.588Z,5.92
2022-11-05T05:30:41.924Z,5.92
2022-11-05T05:33:10.819Z,5.91
2022-11-05T05:35:39.393Z,5.90
2022-11-05T05:38:07.778Z,5.90
2022-11-05T05:40:37.522Z,5.91
2022-11-05T05:43:06.065Z,5.92
2022-11-05T05:45:36.613Z,5.93
2022-11-05T05:48:07.002Z,5.97
2022-11-05T05:50:35.389Z,5.98
2022-11-05T05:53:03.693Z,5.99
2022-11-05T05:55:31.977Z,5.99
2022-11-05T05:58:01.889Z,5.98
2022-11-05T06:00:30.261Z,5.99
2022-11-05T06:02:58.724Z,5.98
2022-11-05T06:05:27.241Z,5.98
2022-11-05T06:07:59.127Z,5.98
2022-11-05T06:10:27.541Z,5.97
2022-11-05T06:12:56.155Z,5.97
2022-11-05T06:15:25.890Z,5.98
2022-11-05T06:17:54.320Z,6.01
2022-11-05T06:20:22.646Z,6.02
2022-11-05T06:22:55.881Z,6.04
2022-11-05T06:25:24.581Z,6.04
2022-11-05T06:27:54.224Z,6.05
2022-11-05T06:30:23.641Z,6.07
2022-11-05T06:32:53.474Z,6.08
2022-11-05T06:35:21.872Z,6.11
2022-11-05T06:37:50.214Z,6.11
2022-11-05T06:40:18.676Z,6.13
2022-11-05T06:42:47.377Z,6.16
2022-11-05T06:45:15.924Z,6.18
2022-11-05T06:47:44.340Z,6.19
2022-11-05T06:50:14.055Z,6.16
2022-11-05T06:52:42.458Z,6.16
2022-11-05T06:55:10.900Z,6.18
2022-11-05T06:57:39.851Z,6.18
2022-11-05T07:00:10.253Z,6.18
2022-11-05T07:02:38.809Z,6.16
2022-11-05T07:05:11.063Z,6.10
2022-11-05T07:07:42.016Z,6.10
2022-11-05T07:10:13.891Z,6.09
2022-11-05T07:12:42.223Z,6.05
2022-11-05T07:15:12.118Z,6.03
2022-11-05T07:17:41.017Z,6.03
2022-11-05T07:20:10.748Z,6.02
2022-11-05T07:22:40.640Z,6.02
2022-11-05T07:25:09.778Z,6.00
2022-11-05T07:27:41.292Z,6.00
2022-11-05T07:30:11.465Z,6.01
2022-11-05T07:32:40.573Z,6.03
2022-11-05T07:35:10.570Z,6.04
2022-11-05T07:37:47.310Z,6.05
2022-11-05T07:40:19.231Z,6.08
2022-11-05T07:42:49.506Z,6.09
2022-11-05T07:45:18.420Z,6.11
2022-11-05T07:47:48.133Z,6.11
2022-11-05T07:50:17.580Z,6.13
2022-11-05T07:52:48.048Z,6.13
2022-11-05T07:55:16.739Z,6.13
2022-11-05T07:57:46.648Z,6.12
2022-11-05T08:00:16.844Z,6.11
2022-11-05T08:02:45.463Z,6.13
2022-11-05T08:05:13.994Z,6.16
2022-11-05T08:07:42.367Z,6.18
2022-11-05T08:10:12.117Z,6.20
2022-11-05T08:12:40.488Z,6.23
2022-11-05T08:15:10.108Z,6.24
2022-11-05T08:17:38.491Z,6.26
2022-11-05T08:20:07.953Z,6.28
2022-11-05T08:22:36.355Z,6.34
2022-11-05T08:25:06.948Z,6.36
2022-11-05T08:27:39.096Z,6.39
2022-11-05T08:30:09.179Z,6.41
2022-11-05T08:32:37.564Z,6.44
2022-11-05T08:35:06.850Z,6.48
2022-11-05T08:37:35.188Z,6.49
2022-11-05T08:40:03.584Z,6.49
2022-11-05T08:42:32.016Z,6.50
2022-11-05T08:45:01.925Z,6.52
2022-11-05T08:47:31.117Z,6.54
2022-11-05T08:49:59.517Z,6.58
2022-11-05T08:52:30.253Z,6.62
2022-11-05T08:54:58.627Z,6.64
2022-11-05T08:57:27.283Z,6.66
2022-11-05T08:59:56.389Z,6.68
2022-11-05T09:02:26.324Z,6.72
2022-11-05T09:04:54.898Z,6.74
2022-11-05T09:07:23.902Z,6.77
2022-11-05T09:09:52.383Z,6.79
2022-11-05T09:12:20.837Z,6.83
2022-11-05T09:14:49.213Z,6.87
2022-11-05T09:17:19.277Z,6.92
2022-11-05T09:19:49.557Z,6.98
2022-11-05T09:22:18.057Z,7.03
2022-11-05T09:24:46.501Z,7.08
2022-11-05T09:27:15.241Z,7.13
2022-11-05T09:29:43.846Z,7.15
2022-11-05T09:32:12.141Z,7.20
2022-11-05T09:34:41.757Z,7.25
2022-11-05T09:37:11.798Z,7.33
2022-11-05T09:39:43.892Z,7.35
2022-11-05T09:43:04.172Z,7.39
2022-11-05T09:45:38.679Z,7.40
2022-11-05T09:48:26.446Z,7.45
2022-11-05T09:50:58.689Z,7.49
2022-11-05T09:53:29.637Z,7.56
2022-11-05T09:56:00.496Z,7.56
2022-11-05T09:58:38.925Z,7.55
2022-11-05T10:01:12.611Z,7.58
2022-11-05T10:03:48.458Z,7.61
2022-11-05T10:06:20.937Z,7.67
2022-11-05T10:08:56.291Z,7.74
2022-11-05T10:11:31.516Z,7.82
2022-11-05T10:14:04.685Z,7.87
2022-11-05T10:16:38.204Z,7.90
2022-11-05T10:19:10.856Z,7.93
2022-11-05T10:24:30.324Z,7.98
2022-11-05T10:26:59.358Z,8.00
2022-11-05T10:29:30.526Z,8.01
2022-11-05T10:32:00.954Z,8.04
2022-11-05T10:34:33.064Z,8.06
2022-11-05T10:37:01.690Z,8.07
2022-11-05T10:39:33.591Z,8.11
2022-11-05T10:42:32.286Z,8.13
2022-11-05T10:45:08.232Z,8.14
2022-11-05T10:47:57.143Z,8.12
2022-11-05T10:50:29.512Z,8.11
2022-11-05T10:53:00.858Z,8.12
2022-11-05T10:55:33.855Z,8.13
2022-11-05T10:58:10.738Z,8.13
2022-11-05T11:00:39.597Z,8.13
2022-11-05T11:03:36.135Z,8.16
2022-11-05T11:06:07.730Z,8.18
2022-11-05T11:08:39.829Z,8.21
2022-11-05T11:11:12.758Z,8.28
2022-11-05T11:13:52.090Z,8.33
2022-11-05T11:16:22.704Z,8.33
2022-11-05T11:18:55.516Z,8.32
2022-11-05T11:21:24.606Z,8.32
2022-11-05T11:23:57.501Z,8.33
2022-11-05T11:26:30.213Z,8.36
2022-11-05T11:29:03.434Z,8.38
2022-11-05T11:31:39.233Z,8.38
2022-11-05T11:34:16.415Z,8.36
2022-11-05T11:36:47.077Z,8.35
2022-11-05T11:39:25.320Z,8.36
2022-11-05T11:41:57.186Z,8.37
2022-11-05T11:44:29.600Z,8.33
2022-11-05T11:47:02.298Z,8.33
2022-11-05T11:49:36.169Z,8.30
2022-11-05T11:52:11.701Z,8.27
2022-11-05T11:54:40.121Z,8.26
2022-11-05T11:57:23.508Z,8.25
2022-11-05T12:00:08.504Z,8.22
2022-11-05T12:03:01.932Z,8.21
2022-11-05T12:05:46.833Z,8.21
2022-11-05T12:08:35.358Z,8.21
2022-11-05T12:11:08.243Z,8.22
2022-11-05T12:14:05.410Z,8.22
2022-11-05T12:17:07.297Z,8.22
2022-11-05T12:20:01.568Z,8.23
2022-11-05T12:22:43.170Z,8.22
2022-11-05T12:25:20.310Z,8.20
2022-11-05T12:28:18.835Z,8.19
2022-11-05T12:30:55.464Z,8.14
2022-11-05T12:33:35.972Z,8.13
2022-11-05T12:36:33.834Z,8.13
2022-11-05T12:39:21.409Z,8.12
2022-11-05T12:42:01.374Z,8.12
2022-11-05T12:44:44.306Z,8.11
2022-11-05T12:47:29.167Z,8.08
2022-11-05T12:50:11.088Z,8.12
2022-11-05T12:53:13.896Z,8.15
2022-11-05T12:55:48.853Z,8.17
2022-11-05T12:58:24.724Z,8.18
2022-11-05T13:00:58.810Z,8.19
2022-11-05T13:03:41.485Z,8.22
2022-11-05T13:06:14.390Z,8.26
2022-11-05T13:08:47.678Z,8.29
2022-11-05T13:11:21.264Z,8.33
2022-11-05T13:13:59.602Z,8.37
2022-11-05T13:16:31.961Z,8.40
2022-11-05T13:19:08.265Z,8.41
2022-11-05T13:21:39.338Z,8.42
2022-11-05T13:24:16.921Z,8.43
2022-11-05T13:26:50.967Z,8.43
2022-11-05T13:29:24.200Z,8.42
2022-11-05T13:31:58.535Z,8.41
2022-11-05T13:34:32.230Z,8.40
2022-11-05T13:37:23.353Z,8.38
2022-11-05T13:39:56.407Z,8.40
2022-11-05T13:43:00.088Z,8.43
2022-11-05T13:45:51.076Z,8.50
2022-11-05T13:48:40.932Z,8.57
2022-11-05T13:51:38.606Z,8.62
2022-11-05T13:54:30.265Z,8.64
2022-11-05T13:57:12.253Z,8.63
2022-11-05T14:00:03.364Z,8.64
2022-11-05T14:02:40.147Z,8.61
2022-11-05T14:05:21.018Z,8.58
2022-11-05T14:07:51.392Z,8.58
2022-11-05T14:10:39.441Z,8.60
2022-11-05T14:13:21.861Z,8.61
2022-11-05T14:15:59.265Z,8.64
2022-11-05T14:18:41.115Z,8.65
2022-11-05T14:21:32.384Z,8.66
2022-11-05T14:24:24.949Z,8.67
2022-11-05T14:27:45.493Z,8.70
2022-11-05T14:30:41.505Z,8.71
2022-11-05T14:33:32.190Z,8.76
2022-11-05T14:36:32.906Z,8.78
2022-11-05T14:39:18.224Z,8.79
2022-11-05T14:41:58.966Z,8.81
2022-11-05T14:44:28.997Z,8.84
2022-11-05T14:47:00.760Z,8.87
2022-11-05T14:49:32.725Z,8.87
2022-11-05T14:52:07.385Z,8.89
2022-11-05T14:54:43.777Z,8.88
2022-11-05T14:57:14.695Z,8.88
2022-11-05T15:00:01.036Z,8.91
2022-11-05T15:02:36.264Z,8.96
2022-11-05T15:05:40.785Z,9.00
2022-11-05T15:08:31.965Z,9.00
2022-11-05T15:11:12.463Z,8.99
2022-11-05T15:13:50.273Z,9.00
2022-11-05T15:16:24.717Z,8.98
2022-11-05T15:18:56.437Z,8.98
2022-11-05T15:21:26.305Z,8.96
2022-11-05T15:23:57.577Z,8.97
2022-11-05T15:26:37.476Z,8.97
2022-11-05T15:29:17.314Z,8.99
2022-11-05T15:31:47.045Z,8.99
2022-11-05T15:34:22.246Z,8.97
2022-11-05T15:36:53.909Z,8.95
2022-11-05T15:39:30.160Z,8.95
2022-11-05T15:42:02.808Z,8.92
2022-11-05T15:44:33.045Z,8.92
2022-11-05T15:47:20.256Z,8.89
2022-11-05T15:49:51.287Z,8.84
2022-11-05T15:52:22.301Z,8.81
2022-11-05T15:55:18.472Z,8.81
2022-11-05T15:57:51.434Z,8.79
2022-11-05T16:00:22.306Z,8.79
2022-11-05T16:02:54.641Z,8.77
2022-11-05T16:05:24.413Z,8.75
2022-11-05T16:07:52.952Z,8.75
2022-11-05T16:10:31.882Z,8.73
2022-11-05T16:13:29.996Z,8.72
2022-11-05T16:16:00.202Z,8.70
2022-11-05T16:18:32.848Z,8.65
2022-11-05T16:21:03.570Z,8.62
2022-11-05T16:23:46.568Z,8.56
2022-11-05T16:27:04.053Z,8.54
2022-11-05T16:29:29.034Z,8.51
2022-11-05T16:31:58.941Z,8.45
2022-11-05T16:34:29.166Z,8.41
2022-11-05T16:36:58.569Z,8.38
2022-11-05T16:39:27.156Z,8.36
2022-11-05T16:41:55.554Z,8.36
2022-11-05T16:44:25.364Z,8.36
2022-11-05T16:46:54.042Z,8.35
2022-11-05T16:49:22.444Z,8.35
2022-11-05T16:51:50.809Z,8.36
2022-11-05T16:54:19.162Z,8.35
2022-11-05T16:56:47.776Z,8.35
2022-11-05T16:59:16.125Z,8.35
2022-11-05T17:01:48.247Z,8.37
2022-11-05T17:04:18.886Z,8.37
2022-11-05T17:06:49.087Z,8.36
2022-11-05T17:09:17.463Z,8.33
2022-11-05T17:11:45.866Z,8.31
2022-11-05T17:14:15.197Z,8.28
2022-11-05T17:16:45.129Z,8.26
2022-11-05T17:19:16.563Z,8.23
2022-11-05T17:21:45.203Z,8.20
2022-11-05T17:24:13.531Z,8.17
2022-11-05T17:26:41.973Z,8.14
2022-11-05T17:29:10.496Z,8.12
2022-11-05T17:31:40.569Z,8.10
2022-11-05T17:34:11.272Z,8.09
2022-11-05T17:36:39.673Z,8.08
2022-11-05T17:39:08.317Z,8.09
2022-11-05T17:41:36.676Z,8.11
2022-11-05T17:44:05.361Z,8.11
2022-11-05T17:46:33.810Z,8.12
2022-11-05T17:49:02.392Z,8.09
2022-11-05T17:51:32.815Z,8.08
2022-11-05T17:54:01.221Z,8.08
2022-11-05T17:56:35.076Z,8.08
2022-11-05T17:59:04.879Z,8.09
2022-11-05T18:01:35.560Z,8.09
2022-11-05T18:04:08.720Z,8.08
2022-11-05T18:06:39.929Z,8.07
2022-11-05T18:09:09.952Z,8.07
2022-11-05T18:11:39.601Z,8.06
2022-11-05T18:14:09.878Z,8.07
2022-11-05T18:16:38.502Z,8.09
2022-11-05T18:19:06.989Z,8.09
2022-11-05T18:21:35.578Z,8.10
2022-11-05T18:24:06.590Z,8.11
2022-11-05T18:26:35.785Z,8.13
2022-11-05T18:29:06.105Z,8.13
2022-11-05T18:31:34.582Z,8.15
2022-11-05T18:34:03.114Z,8.15
2022-11-05T18:36:32.808Z,8.16
2022-11-05T18:39:03.422Z,8.17
2022-11-05T18:41:34.028Z,8.16
2022-11-05T18:44:04.007Z,8.17
2022-11-05T18:46:56.946Z,8.17
2022-11-05T18:49:22.182Z,8.19
2022-11-05T18:51:50.625Z,8.20
2022-11-05T18:54:18.979Z,8.21
2022-11-05T18:56:48.793Z,8.24
2022-11-05T18:59:36.321Z,8.21
2022-11-05T19:02:05.649Z,8.20
2022-11-05T19:04:35.698Z,8.22
2022-11-05T19:07:05.784Z,8.19
2022-11-05T19:09:35.049Z,8.14
2022-11-05T19:12:06.365Z,8.10
2022-11-05T19:14:35.063Z,8.06
2022-11-05T19:17:04.366Z,8.05
2022-11-05T19:19:33.174Z,8.03
2022-11-05T19:22:01.622Z,8.00
2022-11-05T19:24:31.914Z,7.99
2022-11-05T19:27:00.392Z,8.00
2022-11-05T19:29:31.529Z,7.97
2022-11-05T19:32:02.429Z,7.97
2022-11-05T19:34:31.270Z,7.95
2022-11-05T19:37:01.119Z,7.98
2022-11-05T19:39:30.959Z,8.02
2022-11-05T19:42:03.885Z,8.06
2022-11-05T19:44:34.610Z,8.08
2022-11-05T19:47:02.949Z,8.11
2022-11-05T19:49:31.360Z,8.13
2022-11-05T19:52:00.961Z,8.14
2022-11-05T19:54:30.222Z,8.15
2022-11-05T19:56:59.338Z,8.15
2022-11-05T19:59:27.882Z,8.17
2022-11-05T20:01:58.036Z,8.18
2022-11-05T20:04:26.502Z,8.18
2022-11-05T20:06:54.875Z,8.17
2022-11-05T20:09:23.789Z,8.17
2022-11-05T20:11:54.257Z,8.16
2022-11-05T20:14:24.126Z,8.15
2022-11-05T20:16:52.993Z,8.14
2022-11-05T20:19:23.720Z,8.06
2022-11-05T20:21:52.387Z,8.02
2022-11-05T20:24:25.177Z,8.01
2022-11-05T20:26:55.103Z,7.97
2022-11-05T20:29:27.862Z,7.98
2022-11-05T20:31:59.118Z,7.99
2022-11-05T20:34:29.570Z,7.99
2022-11-05T20:36:57.915Z,7.99
2022-11-05T20:39:26.338Z,7.99
2022-11-05T20:41:56.367Z,7.97
2022-11-05T20:44:24.926Z,7.94
2022-11-05T20:46:53.515Z,7.93
2022-11-05T20:49:25.335Z,7.91
2022-11-05T20:51:56.049Z,7.91
2022-11-05T20:54:24.568Z,7.89
2022-11-05T20:56:52.925Z,7.89
2022-11-05T20:59:21.338Z,7.88
2022-11-05T21:01:51.519Z,7.87
2022-11-05T21:04:20.132Z,7.89
2022-11-05T21:06:48.626Z,7.85
2022-11-05T21:09:18.501Z,7.83
2022-11-05T21:12:05.109Z,7.80
2022-11-05T21:14:33.425Z,7.73
2022-11-05T21:17:01.761Z,7.75
2022-11-05T21:19:31.938Z,7.75
2022-11-05T21:22:00.398Z,7.71
2022-11-05T21:24:30.241Z,7.71
2022-11-05T21:26:58.630Z,7.74
2022-11-05T21:29:26.980Z,7.76
2022-11-05T21:31:55.370Z,7.81
2022-11-05T21:34:23.784Z,7.84
2022-11-05T21:36:52.595Z,7.85
2022-11-05T21:39:21.124Z,7.86
2022-11-05T21:41:50.814Z,7.88
2022-11-05T21:44:19.270Z,7.87
2022-11-05T21:46:47.653Z,7.89
2022-11-05T21:49:16.140Z,7.88
2022-11-05T21:52:01.941Z,7.89
2022-11-05T21:54:47.850Z,7.88
2022-11-05T21:57:36.868Z,7.87
2022-11-05T22:00:06.897Z,7.85
2022-11-05T22:02:35.517Z,7.86
2022-11-05T22:05:05.330Z,7.86
2022-11-05T22:07:35.499Z,7.86
2022-11-05T22:10:06.553Z,7.82
2022-11-05T22:12:36.436Z,7.80
2022-11-05T22:15:05.940Z,7.80
2022-11-05T22:17:34.308Z,7.78
2022-11-05T22:20:03.085Z,7.76
2022-11-05T22:22:31.414Z,7.74
2022-11-05T22:24:59.818Z,7.74
2022-11-05T22:27:28.167Z,7.74
2022-11-05T22:29:57.929Z,7.74
2022-11-05T22:32:26.333Z,7.75
2022-11-05T22:34:54.675Z,7.78
2022-11-05T22:37:23.021Z,7.78
2022-11-05T22:39:51.863Z,7.79
2022-11-05T22:42:20.265Z,7.78
2022-11-05T22:44:49.027Z,7.74
2022-11-05T22:47:18.937Z,7.77
2022-11-05T22:49:50.238Z,7.80
2022-11-05T22:52:18.604Z,7.80
2022-11-05T22:54:47.754Z,7.79
2022-11-05T22:57:16.154Z,7.80
2022-11-05T22:59:44.500Z,7.83
2022-11-05T23:02:12.998Z,7.85
2022-11-05T23:04:42.965Z,7.84
2022-11-05T23:07:29.389Z,7.85
2022-11-05T23:10:15.497Z,7.85
2022-11-05T23:12:44.611Z,7.85
2022-11-05T23:15:34.404Z,7.82
2022-11-05T23:18:20.492Z,7.80
2022-11-05T23:21:07.529Z,7.80
2022-11-05T23:23:53.443Z,7.79
2022-11-05T23:26:41.677Z,7.78
2022-11-05T23:29:10.072Z,7.77
2022-11-05T23:31:56.020Z,7.78
2022-11-05T23:34:24.361Z,7.77
2022-11-05T23:37:11.586Z,7.77
2022-11-05T23:39:42.916Z,7.74
2022-11-05T23:42:29.645Z,7.73
2022-11-05T23:45:15.477Z,7.71
2022-11-05T23:48:01.436Z,7.71
2022-11-05T23:50:34.326Z,7.69
2022-11-05T23:53:08.602Z,7.66
2022-11-05T23:55:37.129Z,7.65
2022-11-05T23:58:05.674Z,7.59
